createdAt,value
2019-04-20T00:02:20.660Z,12.60
2019-04-20T00:04:52.257Z,12.50
2019-04-20T00:07:24.585Z,12.50
2019-04-20T00:10:06.274Z,12.50
2019-04-20T00:12:36.854Z,12.50
2019-04-20T00:15:02.971Z,12.20
2019-04-20T00:17:41.211Z,12.20
2019-04-20T00:20:13.370Z,12.20
2019-04-20T00:22:53.255Z,12.10
2019-04-20T00:25:53.154Z,12.10
2019-04-20T00:28:30.207Z,12.40
2019-04-20T00:31:08.584Z,12.00
2019-04-20T00:33:31.974Z,12.00
2019-04-20T00:35:51.200Z,12.00
2019-04-20T00:38:25.928Z,12.10
2019-04-20T00:41:00.064Z,11.80
2019-04-20T00:43:32.307Z,12.30
2019-04-20T00:46:06.780Z,12.00
2019-04-20T00:48:41.595Z,12.10
2019-04-20T00:51:24.983Z,12.00
2019-04-20T00:53:40.865Z,12.00
2019-04-20T00:56:07.548Z,12.10
2019-04-20T00:58:51.841Z,12.20
2019-04-20T01:01:31.120Z,12.00
2019-04-20T01:04:05.541Z,11.70
2019-04-20T01:07:06.256Z,11.80
2019-04-20T01:09:43.369Z,12.10
2019-04-20T01:12:19.281Z,11.70
2019-04-20T01:14:53.582Z,11.80
2019-04-20T01:17:18.528Z,11.60
2019-04-20T01:19:52.598Z,11.40
2019-04-20T01:22:24.035Z,11.70
2019-04-20T01:24:54.963Z,11.80
2019-04-20T01:27:41.155Z,11.40
2019-04-20T01:30:11.333Z,11.70
2019-04-20T01:32:51.477Z,11.30
2019-04-20T01:35:24.856Z,11.40
2019-04-20T01:37:57.484Z,11.40
2019-04-20T01:40:13.057Z,11.40
2019-04-20T01:42:44.991Z,11.30
2019-04-20T01:45:22.438Z,11.40
2019-04-20T01:47:52.894Z,11.10
2019-04-20T01:50:26.339Z,11.20
2019-04-20T01:53:08.267Z,11.40
2019-04-20T01:56:00.016Z,11.60
2019-04-20T01:58:50.527Z,11.10
2019-04-20T02:01:21.050Z,11.00
2019-04-20T02:04:00.223Z,11.20
2019-04-20T02:06:39.860Z,11.10
2019-04-20T02:09:12.003Z,11.00
2019-04-20T02:11:42.574Z,11.20
2019-04-20T02:14:11.968Z,11.10
2019-04-20T02:16:47.346Z,11.30
2019-04-20T02:19:30.697Z,11.10
2019-04-20T02:22:04.077Z,11.20
2019-04-20T02:24:20.015Z,11.00
2019-04-20T02:26:51.913Z,11.00
2019-04-20T02:29:46.963Z,11.10
2019-04-20T02:32:23.200Z,11.10
2019-04-20T02:37:56.745Z,11.00
2019-04-20T02:40:20.663Z,11.00
2019-04-20T02:42:51.592Z,11.00
2019-04-20T02:48:02.869Z,10.70
2019-04-20T02:55:31.334Z,11.00
2019-04-20T02:58:05.119Z,10.60
2019-04-20T03:00:29.701Z,10.60
2019-04-20T03:02:48.687Z,10.60
2019-04-20T03:05:25.604Z,10.50
2019-04-20T03:08:05.716Z,10.50
2019-04-20T03:10:43.376Z,10.30
2019-04-20T03:13:08.037Z,10.70
2019-04-20T03:15:41.812Z,10.50
2019-04-20T03:18:16.141Z,10.40
2019-04-20T03:20:46.261Z,10.50
2019-04-20T03:26:05.322Z,10.40
2019-04-20T03:28:53.873Z,10.10
2019-04-20T03:36:42.634Z,10.30
2019-04-20T03:39:10.065Z,10.30
2019-04-20T03:41:28.226Z,10.20
2019-04-20T03:44:04.043Z,9.90
2019-04-20T03:46:36.676Z,10.00
2019-04-20T03:49:22.728Z,10.30
2019-04-20T03:51:53.492Z,10.00
2019-04-20T03:54:40.841Z,10.10
2019-04-20T03:57:31.066Z,10.20
2019-04-20T04:00:16.376Z,10.00
2019-04-20T04:03:09.314Z,10.10
2019-04-20T04:05:42.481Z,9.70
2019-04-20T04:08:05.125Z,9.90
2019-04-20T04:10:44.276Z,9.90
2019-04-20T04:13:14.808Z,10.00
2019-04-20T04:15:51.935Z,9.70
2019-04-20T04:18:26.045Z,9.80
2019-04-20T04:20:59.421Z,10.10
2019-04-20T04:23:41.001Z,9.90
2019-04-20T04:26:12.635Z,9.80
2019-04-20T04:28:43.402Z,9.80
2019-04-20T04:31:15.708Z,9.80
2019-04-20T04:33:58.008Z,9.80
2019-04-20T04:36:20.869Z,9.50
2019-04-20T04:39:19.220Z,9.70
2019-04-20T04:41:31.034Z,9.50
2019-04-20T04:43:58.892Z,9.70
2019-04-20T04:46:14.884Z,9.80
2019-04-20T04:48:51.665Z,9.50
2019-04-20T04:51:27.850Z,9.60
2019-04-20T04:54:03.671Z,9.90
2019-04-20T04:56:29.125Z,9.60
2019-04-20T04:59:00.315Z,9.60
2019-04-20T05:01:33.983Z,9.30
2019-04-20T05:04:44.476Z,9.80
2019-04-20T05:06:53.568Z,9.90
2019-04-20T05:09:12.517Z,9.90
2019-04-20T05:11:42.726Z,9.90
2019-04-20T05:14:22.435Z,9.80
2019-04-20T05:17:04.266Z,10.10
2019-04-20T05:19:45.789Z,10.20
2019-04-20T05:22:23.005Z,10.30
2019-04-20T05:25:11.986Z,10.20
2019-04-20T05:27:57.240Z,10.40
2019-04-20T05:30:09.858Z,10.60
2019-04-20T05:32:52.427Z,10.60
2019-04-20T05:35:31.071Z,10.60
2019-04-20T05:38:11.906Z,10.70
2019-04-20T05:40:45.035Z,10.70
2019-04-20T05:43:17.673Z,10.80
2019-04-20T05:45:45.022Z,11.10
2019-04-20T05:48:20.553Z,11.00
2019-04-20T05:50:57.534Z,11.60
2019-04-20T05:53:37.033Z,12.00
2019-04-20T05:56:02.573Z,12.60
2019-04-20T05:58:40.200Z,13.60
2019-04-20T06:01:14.667Z,13.80
2019-04-20T06:03:45.097Z,14.40
2019-04-20T06:06:14.720Z,14.50
2019-04-20T06:08:53.703Z,14.90
2019-04-20T06:11:24.105Z,15.00
2019-04-20T06:14:02.425Z,15.30
2019-04-20T06:17:05.830Z,15.00
2019-04-20T06:19:35.831Z,14.70
2019-04-20T06:22:20.438Z,14.60
2019-04-20T06:25:40.850Z,14.40
2019-04-20T06:28:01.022Z,14.40
2019-04-20T06:30:21.325Z,14.20
2019-04-20T06:33:55.236Z,14.20
2019-04-20T06:36:29.231Z,14.70
2019-04-20T06:41:45.276Z,14.70
2019-04-20T06:43:45.982Z,14.40
2019-04-20T06:46:22.744Z,14.50
2019-04-20T06:48:53.838Z,14.80
2019-04-20T06:51:29.865Z,14.90
2019-04-20T06:53:52.818Z,15.70
2019-04-20T06:56:42.515Z,16.20
2019-04-20T06:59:22.820Z,16.30
2019-04-20T07:01:57.021Z,16.50
2019-04-20T07:06:56.778Z,17.50
2019-04-20T07:09:36.120Z,17.50
2019-04-20T07:11:57.046Z,17.80
2019-04-20T07:14:23.407Z,17.70
2019-04-20T07:17:24.406Z,17.70
2019-04-20T07:19:46.565Z,17.20
2019-04-20T07:22:55.925Z,17.00
2019-04-20T07:25:01.291Z,16.60
2019-04-20T07:27:35.434Z,16.80
2019-04-20T07:30:12.498Z,16.80
2019-04-20T07:32:49.827Z,16.70
2019-04-20T07:35:14.046Z,16.70
2019-04-20T07:40:23.164Z,17.10
2019-04-20T07:42:56.078Z,17.40
2019-04-20T07:45:32.035Z,17.90
2019-04-20T07:48:07.544Z,18.50
2019-04-20T07:50:31.777Z,18.70
2019-04-20T07:53:04.447Z,19.10
2019-04-20T07:55:47.836Z,18.90
2019-04-20T07:58:05.823Z,19.10
2019-04-20T08:00:59.749Z,19.20
2019-04-20T08:03:35.190Z,19.20
2019-04-20T08:06:00.797Z,19.20
2019-04-20T08:08:32.815Z,19.40
2019-04-20T08:11:12.366Z,20.90
2019-04-20T08:13:51.407Z,21.80
2019-04-20T08:16:24.342Z,22.60
2019-04-20T08:18:58.604Z,23.50
2019-04-20T08:21:22.881Z,24.80
2019-04-20T08:23:55.935Z,25.20
2019-04-20T08:26:17.649Z,25.20
2019-04-20T08:28:54.585Z,24.60
2019-04-20T08:31:56.305Z,24.50
2019-04-20T08:34:45.313Z,24.20
2019-04-20T08:37:08.492Z,23.10
2019-04-20T08:39:55.551Z,22.40
2019-04-20T08:42:11.626Z,21.70
2019-04-20T08:47:35.160Z,20.10
2019-04-20T08:55:19.697Z,19.20
2019-04-20T08:57:33.602Z,18.90
2019-04-20T09:00:07.108Z,18.60
2019-04-20T09:02:41.372Z,18.90
2019-04-20T09:05:24.876Z,18.80
2019-04-20T09:07:55.357Z,18.80
2019-04-20T09:10:39.239Z,18.90
2019-04-20T09:13:06.081Z,19.60
2019-04-20T09:15:25.346Z,19.60
2019-04-20T09:18:02.035Z,20.10
2019-04-20T09:20:43.533Z,20.50
2019-04-20T09:23:21.319Z,21.00
2019-04-20T09:26:02.316Z,21.10
2019-04-20T09:28:37.146Z,22.00
2019-04-20T09:31:20.789Z,23.00
2019-04-20T09:34:13.077Z,23.20
2019-04-20T09:37:02.709Z,22.70
2019-04-20T09:39:33.810Z,21.90
2019-04-20T09:42:13.150Z,21.90
2019-04-20T09:44:48.821Z,21.90
2019-04-20T09:47:25.895Z,22.30
2019-04-20T09:52:25.406Z,22.60
2019-04-20T09:54:59.280Z,22.00
2019-04-20T09:57:33.523Z,21.90
2019-04-20T10:00:08.664Z,21.90
2019-04-20T10:02:27.787Z,21.80
2019-04-20T10:04:55.590Z,22.10
2019-04-20T10:07:32.549Z,21.90
2019-04-20T10:09:59.918Z,22.40
2019-04-20T10:12:31.501Z,22.20
2019-04-20T10:15:10.745Z,22.30
2019-04-20T10:17:38.207Z,21.80
2019-04-20T10:20:19.422Z,21.40
2019-04-20T10:22:42.577Z,21.70
2019-04-20T10:25:15.014Z,21.60
2019-04-20T10:27:47.411Z,21.60
2019-04-20T10:30:18.647Z,21.80
2019-04-20T10:32:52.269Z,21.10
2019-04-20T10:35:21.396Z,21.40
2019-04-20T10:37:56.017Z,21.20
2019-04-20T10:40:38.038Z,21.40
2019-04-20T10:43:01.536Z,21.90
2019-04-20T10:45:33.055Z,22.00
2019-04-20T10:48:05.476Z,22.70
2019-04-20T10:50:36.794Z,22.90
2019-04-20T10:53:07.961Z,23.10
2019-04-20T10:55:40.073Z,22.90
2019-04-20T10:58:11.464Z,23.30
2019-04-20T11:00:43.992Z,23.40
2019-04-20T11:03:17.619Z,23.10
2019-04-20T11:05:50.831Z,23.20
2019-04-20T11:08:24.495Z,23.30
2019-04-20T11:11:08.385Z,23.10
2019-04-20T11:13:29.646Z,23.10
2019-04-20T11:16:00.521Z,23.20
2019-04-20T11:18:33.458Z,23.00
2019-04-20T11:21:05.054Z,23.40
2019-04-20T11:23:36.233Z,23.40
2019-04-20T11:26:08.387Z,23.00
2019-04-20T11:28:39.942Z,23.20
2019-04-20T11:31:12.325Z,23.30
2019-04-20T11:33:44.273Z,24.10
2019-04-20T11:36:17.197Z,24.30
2019-04-20T11:38:48.980Z,24.70
2019-04-20T11:41:25.540Z,25.00
2019-04-20T11:43:52.083Z,25.30
2019-04-20T11:46:22.962Z,25.80
2019-04-20T11:48:53.445Z,26.30
2019-04-20T11:51:25.431Z,26.20
2019-04-20T11:53:56.414Z,25.60
2019-04-20T11:56:31.749Z,25.60
2019-04-20T11:58:59.016Z,25.90
2019-04-20T12:01:59.022Z,25.90
2019-04-20T12:04:41.320Z,26.20
2019-04-20T12:07:06.497Z,26.70
2019-04-20T12:09:39.594Z,27.00
2019-04-20T12:12:22.330Z,26.70
2019-04-20T12:14:43.339Z,26.40
2019-04-20T12:17:15.598Z,25.90
2019-04-20T12:19:46.415Z,25.80
2019-04-20T12:22:18.007Z,26.10
2019-04-20T12:24:49.926Z,26.00
2019-04-20T12:27:22.852Z,25.60
2019-04-20T12:29:54.016Z,25.30
2019-04-20T12:32:28.209Z,25.40
2019-04-20T12:34:58.220Z,25.50
2019-04-20T12:37:31.222Z,24.90
2019-04-20T12:40:03.206Z,24.30
2019-04-20T12:42:36.835Z,23.80
2019-04-20T12:45:08.510Z,23.00
2019-04-20T12:47:39.657Z,22.80
2019-04-20T12:50:11.998Z,22.70
2019-04-20T12:52:44.214Z,22.60
2019-04-20T12:55:16.676Z,22.70
2019-04-20T12:57:47.205Z,22.60
2019-04-20T13:00:19.520Z,22.50
2019-04-20T13:02:51.536Z,22.80
2019-04-20T13:05:22.291Z,22.90
2019-04-20T13:07:56.445Z,23.10
2019-04-20T13:10:25.613Z,23.10
2019-04-20T13:13:06.047Z,23.00
2019-04-20T13:16:02.597Z,23.10
2019-04-20T13:18:43.754Z,22.90
2019-04-20T13:21:14.101Z,23.10
2019-04-20T13:23:45.027Z,22.90
2019-04-20T13:26:17.575Z,23.10
2019-04-20T13:28:49.135Z,23.00
2019-04-20T13:31:20.001Z,22.70
2019-04-20T13:33:53.019Z,23.10
2019-04-20T13:36:24.190Z,23.20
2019-04-20T13:38:55.095Z,23.40
2019-04-20T13:41:27.675Z,23.20
2019-04-20T13:44:00.113Z,23.40
2019-04-20T13:46:31.255Z,23.30
2019-04-20T13:49:03.116Z,23.60
2019-04-20T13:51:34.871Z,23.60
2019-04-20T13:54:12.718Z,23.50
2019-04-20T13:56:37.884Z,23.20
2019-04-20T13:59:30.016Z,23.20
2019-04-20T14:02:26.432Z,23.40
2019-04-20T14:05:00.858Z,23.20
2019-04-20T14:07:33.775Z,22.90
2019-04-20T14:10:05.850Z,23.30
2019-04-20T14:12:44.561Z,23.00
2019-04-20T14:15:10.903Z,23.10
2019-04-20T14:17:41.646Z,22.80
2019-04-20T14:20:15.788Z,22.90
2019-04-20T14:22:45.186Z,22.80
2019-04-20T14:25:16.068Z,22.70
2019-04-20T14:27:46.931Z,23.00
2019-04-20T14:30:19.681Z,22.70
2019-04-20T14:32:50.619Z,22.80
2019-04-20T14:35:22.967Z,22.70
2019-04-20T14:37:59.609Z,23.00
2019-04-20T14:40:30.397Z,23.20
2019-04-20T14:43:01.708Z,23.10
2019-04-20T14:45:32.401Z,22.80
2019-04-20T14:48:05.713Z,23.10
2019-04-20T14:50:37.954Z,23.10
2019-04-20T14:53:11.471Z,23.20
2019-04-20T14:55:44.851Z,23.20
2019-04-20T14:58:41.387Z,23.30
2019-04-20T15:01:24.774Z,23.20
2019-04-20T15:04:04.130Z,23.00
2019-04-20T15:06:29.952Z,22.90
2019-04-20T15:09:00.873Z,22.80
2019-04-20T15:11:33.129Z,22.90
2019-04-20T15:14:06.749Z,22.70
2019-04-20T15:16:38.516Z,22.50
2019-04-20T15:19:41.397Z,22.70
2019-04-20T15:22:39.211Z,22.80
2019-04-20T15:25:09.995Z,22.50
2019-04-20T15:27:44.678Z,22.70
2019-04-20T15:30:14.168Z,22.60
2019-04-20T15:32:45.081Z,22.60
2019-04-20T15:35:19.091Z,22.70
2019-04-20T15:37:49.183Z,22.80
2019-04-20T15:40:19.815Z,22.40
2019-04-20T15:42:58.969Z,22.30
2019-04-20T15:45:23.564Z,22.10
2019-04-20T15:47:54.230Z,22.40
2019-04-20T15:50:25.691Z,22.40
2019-04-20T15:52:58.393Z,22.30
2019-04-20T15:55:32.917Z,22.30
2019-04-20T15:58:05.067Z,21.90
2019-04-20T16:00:36.437Z,21.70
2019-04-20T16:03:13.022Z,22.20
2019-04-20T16:06:03.324Z,22.10
2019-04-20T16:08:38.748Z,22.10
2019-04-20T16:11:11.127Z,21.90
2019-04-20T16:13:44.609Z,22.10
2019-04-20T16:16:14.215Z,22.00
2019-04-20T16:18:46.645Z,22.10
2019-04-20T16:21:22.507Z,22.00
2019-04-20T16:24:12.901Z,21.90
2019-04-20T16:27:05.373Z,21.70
2019-04-20T16:29:36.436Z,22.20
2019-04-20T16:32:08.906Z,22.00
2019-04-20T16:34:40.325Z,21.60
2019-04-20T16:37:12.273Z,21.70
2019-04-20T16:39:42.970Z,21.90
2019-04-20T16:42:14.557Z,21.90
2019-04-20T16:44:47.219Z,21.90
2019-04-20T16:47:18.464Z,21.70
2019-04-20T16:49:48.983Z,21.50
2019-04-20T16:52:21.203Z,21.70
2019-04-20T16:54:51.801Z,21.80
2019-04-20T16:57:23.575Z,21.70
2019-04-20T16:59:57.788Z,21.40
2019-04-20T17:02:29.859Z,21.70
2019-04-20T17:05:00.933Z,21.50
2019-04-20T17:07:39.037Z,21.40
2019-04-20T17:10:11.844Z,21.30
2019-04-20T17:12:43.736Z,21.20
2019-04-20T17:15:15.855Z,21.20
2019-04-20T17:17:49.271Z,21.30
2019-04-20T17:20:21.886Z,21.20
2019-04-20T17:22:54.364Z,20.80
2019-04-20T17:25:25.899Z,21.00
2019-04-20T17:28:17.909Z,20.70
2019-04-20T17:30:59.173Z,20.90
2019-04-20T17:33:50.791Z,20.80
2019-04-20T17:36:20.838Z,20.60
2019-04-20T17:38:52.660Z,20.70
2019-04-20T17:41:43.074Z,20.50
2019-04-20T17:44:09.988Z,20.20
2019-04-20T17:46:38.429Z,20.30
2019-04-20T17:49:14.599Z,20.00
2019-04-20T17:51:56.857Z,19.90
2019-04-20T17:54:22.161Z,19.60
2019-04-20T17:56:54.381Z,19.90
2019-04-20T17:59:26.177Z,19.40
2019-04-20T18:02:33.309Z,19.40
2019-04-20T18:05:48.177Z,19.30
2019-04-20T18:08:13.329Z,19.20
2019-04-20T18:10:37.886Z,19.30
2019-04-20T18:12:58.666Z,18.90
2019-04-20T18:15:45.510Z,18.70
2019-04-20T18:18:33.647Z,18.80
2019-04-20T18:21:12.815Z,18.60
2019-04-20T18:23:48.181Z,18.40
2019-04-20T18:26:37.864Z,18.60
2019-04-20T18:29:10.366Z,18.20
2019-04-20T18:31:39.577Z,18.00
2019-04-20T18:34:20.241Z,18.10
2019-04-20T18:36:49.512Z,18.00
2019-04-20T18:39:29.080Z,17.80
2019-04-20T18:41:57.208Z,17.60
2019-04-20T18:44:30.595Z,17.50
2019-04-20T18:47:21.663Z,17.40
2019-04-20T18:49:44.229Z,17.80
2019-04-20T18:52:03.882Z,17.50
2019-04-20T18:54:40.098Z,17.40
2019-04-20T18:57:11.361Z,17.30
2019-04-20T18:59:42.852Z,17.60
2019-04-20T19:02:19.895Z,16.90
2019-04-20T19:04:45.857Z,17.10
2019-04-20T19:07:18.071Z,17.20
2019-04-20T19:09:55.265Z,16.90
2019-04-20T19:12:34.470Z,17.00
2019-04-20T19:15:20.391Z,16.80
2019-04-20T19:17:58.127Z,17.00
2019-04-20T19:20:23.801Z,16.60
2019-04-20T19:22:53.391Z,16.90
2019-04-20T19:25:30.289Z,16.50
2019-04-20T19:27:59.473Z,16.40
2019-04-20T19:30:38.268Z,16.50
2019-04-20T19:33:19.226Z,16.20
2019-04-20T19:35:48.040Z,16.30
2019-04-20T19:38:15.909Z,16.20
2019-04-20T19:40:50.956Z,16.30
2019-04-20T19:43:22.664Z,16.30
2019-04-20T19:46:16.671Z,15.90
2019-04-20T19:48:29.584Z,16.10
2019-04-20T19:51:10.157Z,16.10
2019-04-20T19:53:41.630Z,15.90
2019-04-20T19:56:05.238Z,15.70
2019-04-20T19:58:34.471Z,15.90
2019-04-20T20:01:02.588Z,15.50
2019-04-20T20:03:33.386Z,15.40
2019-04-20T20:06:04.146Z,15.40
2019-04-20T20:08:37.899Z,15.40
2019-04-20T20:11:16.877Z,15.30
2019-04-20T20:13:48.559Z,15.10
2019-04-20T20:16:26.437Z,15.10
2019-04-20T20:18:59.861Z,15.00
2019-04-20T20:21:32.767Z,15.10
2019-04-20T20:23:54.159Z,15.10
2019-04-20T20:26:34.501Z,14.70
2019-04-20T20:29:08.183Z,14.70
2019-04-20T20:31:48.448Z,15.00
2019-04-20T20:34:14.375Z,14.80
2019-04-20T20:36:51.301Z,14.90
2019-04-20T20:39:16.705Z,15.00
2019-04-20T20:41:57.788Z,14.90
2019-04-20T20:44:28.769Z,14.90
2019-04-20T20:46:59.272Z,14.50
2019-04-20T20:49:48.696Z,14.70
2019-04-20T20:52:17.333Z,14.70
2019-04-20T20:54:43.644Z,14.60
2019-04-20T20:57:10.702Z,14.50
2019-04-20T20:59:42.760Z,14.40
2019-04-20T21:02:15.723Z,14.50
2019-04-20T21:04:42.149Z,14.30
2019-04-20T21:07:12.994Z,14.50
2019-04-20T21:09:43.348Z,14.40
2019-04-20T21:12:16.292Z,14.30
2019-04-20T21:14:47.214Z,14.30
2019-04-20T21:17:23.372Z,14.30
2019-04-20T21:20:08.070Z,14.00
2019-04-20T21:22:46.649Z,14.00
2019-04-20T21:24:58.984Z,13.90
2019-04-20T21:27:29.793Z,13.90
2019-04-20T21:30:03.241Z,13.90
2019-04-20T21:32:41.717Z,13.80
2019-04-20T21:35:10.399Z,13.70
2019-04-20T21:37:41.332Z,13.70
2019-04-20T21:40:21.816Z,13.70
2019-04-20T21:42:51.716Z,13.40
2019-04-20T21:45:23.598Z,13.30
2019-04-20T21:47:52.635Z,13.40
2019-04-20T21:50:37.032Z,13.30
2019-04-20T21:53:00.701Z,13.30
2019-04-20T21:55:27.932Z,13.00
2019-04-20T21:58:00.485Z,12.90
2019-04-20T22:00:56.052Z,13.00
2019-04-20T22:03:22.665Z,12.50
2019-04-20T22:06:02.354Z,12.80
2019-04-20T22:08:34.549Z,12.60
2019-04-20T22:11:05.899Z,12.60
2019-04-20T22:13:40.226Z,12.60
2019-04-20T22:16:14.314Z,13.00
2019-04-20T22:18:54.359Z,12.70
2019-04-20T22:21:25.465Z,12.60
2019-04-20T22:24:05.682Z,12.50
2019-04-20T22:26:30.054Z,12.50
2019-04-20T22:28:56.197Z,12.30
2019-04-20T22:31:27.616Z,12.20
2019-04-20T22:34:02.284Z,12.40
2019-04-20T22:36:36.902Z,12.30
2019-04-20T22:39:09.544Z,12.40
2019-04-20T22:41:45.782Z,12.50
2019-04-20T22:44:20.701Z,12.50
2019-04-20T22:46:50.272Z,12.30
2019-04-20T22:49:35.929Z,12.40
2019-04-20T22:52:04.126Z,12.00
2019-04-20T22:54:42.296Z,12.20
2019-04-20T22:57:10.681Z,11.90
2019-04-20T22:59:41.760Z,11.80
2019-04-20T23:02:06.528Z,11.90
2019-04-20T23:04:39.134Z,11.80
2019-04-20T23:07:10.763Z,11.80
2019-04-20T23:09:48.686Z,11.80
2019-04-20T23:12:17.616Z,11.50
2019-04-20T23:14:46.685Z,11.40
2019-04-20T23:17:24.361Z,11.50
2019-04-20T23:19:56.220Z,11.40
2019-04-20T23:22:33.851Z,11.10
2019-04-20T23:24:55.639Z,11.30
2019-04-20T23:27:31.170Z,11.10
2019-04-20T23:29:58.571Z,11.30
2019-04-20T23:32:30.207Z,11.10
2019-04-20T23:35:08.298Z,11.10
2019-04-20T23:37:37.027Z,11.20
2019-04-20T23:40:10.023Z,11.10
2019-04-20T23:42:45.885Z,11.00
2019-04-20T23:45:31.444Z,11.00
2019-04-20T23:48:07.158Z,11.00
2019-04-20T23:50:54.144Z,11.20
2019-04-20T23:53:24.337Z,11.00
2019-04-20T23:55:43.748Z,11.10
2019-04-20T23:58:15.703Z,11.10
